Wheeler, Illinois
Current Conditions -  °F | °C
As of 5:15 AM on Sunday 23 Nov 2014 (Local Time) from K1H2 Reporting Station
Clear Clear  
Wind Chill: 45°   Ceiling: Unl
Heat Index: 49°   Visibility: NA
Dew Point: 38°   Wind: 8mph
Humidity: 66%   Direction: 150°SSE
Pressure: 29.83"   Gusts: NA
Location:  39.05°N, 88.32°W
Report Text: K1H2 231115Z AUTO 15007KT CLR 09/03 A2983 RMK AO2 T00930033 PWINO
Loading
Personal Weather Stations






























Interactive Weather Map New forecast layout! Learn more

10-Day Weather Forecast

Advertisements
Track Severe Weather on mobile